Time;durP1;ratioP1;P1;durP2;ratioP2;P2;SDS_P1;SDS_P2;PMS_P1;PMS_P2;Temp;Humidity;BMP_temperature;BMP_pressure;BME280_temperature;BME280_humidity;BME280_pressure;Samples;Min_cycle;Max_cycle;Signal;HPM_P1;HPM_P2
2022/03/19 00:02:13;;;;;;;;;;;;;;;-0.68;47.20;101459.53;4900000;29;20347;-68
2022/03/19 00:04:39;;;;;;;;;;;;;;;-0.68;47.22;101459.53;4900179;29;19988;-68
2022/03/19 00:07:04;;;;;;;;;;;;;;;-0.71;47.27;101459.75;4900321;29;19988;-67
2022/03/19 00:09:30;;;;;;;;;;;;;;;-0.73;47.29;101453.84;4883350;29;19932;-67
2022/03/19 00:11:55;;;;;;;;;;;;;;;-0.74;47.06;101462.59;4900812;29;19962;-67
2022/03/19 00:14:21;;;;;;;;;;;;;;;-0.77;47.21;101455.84;4917755;29;19954;-68
2022/03/19 00:16:46;;;;;;;;;;;;;;;-0.81;47.07;101461.41;4918522;29;19986;-66
2022/03/19 00:19:12;;;;;;;;;;;;;;;-0.86;47.17;101458.28;4919176;29;19931;-65
2022/03/19 00:21:37;;;;;;;;;;;;;;;-0.89;47.47;101463.72;4918990;29;19934;-66
2022/03/19 00:24:04;;;;;;;;;;;;;;;-0.92;47.43;101460.41;4912365;29;19932;-67
2022/03/19 00:26:30;;;;;;;;;;;;;;;-0.92;47.34;101457.78;4892422;29;19977;-64
2022/03/19 00:28:56;;;;;;;;;;;;;;;-0.93;47.44;101457.91;4906486;29;20018;-66
2022/03/19 00:31:22;;;;;;;;;;;;;;;-0.91;47.37;101461.25;4908771;29;19999;-66
2022/03/19 00:33:48;;;;;;;;;;;;;;;-0.89;47.26;101464.56;4908273;29;20446;-69
2022/03/19 00:36:13;;;;;;;;;;;;;;;-0.89;47.37;101464.56;4907526;29;19932;-65
2022/03/19 00:38:39;;;;;;;;;;;;;;;-0.89;47.40;101468.94;4907638;29;20313;-67
2022/03/19 00:41:04;;;;;;;;;;;;;;;-0.93;47.37;101465.72;4909834;29;20063;-67
2022/03/19 00:43:30;;;;;;;;;;;;;;;-0.97;47.54;101466.88;4908260;29;19928;-66
2022/03/19 00:45:55;;;;;;;;;;;;;;;-1.07;47.64;101456.31;4899256;29;19931;-67
2022/03/19 00:48:21;;;;;;;;;;;;;;;-1.07;47.69;101463.28;4916824;29;19927;-67
2022/03/19 00:50:46;;;;;;;;;;;;;;;-1.11;47.85;101464.47;4912685;29;20004;-69
2022/03/19 00:53:12;;;;;;;;;;;;;;;-1.16;47.81;101455.19;4909156;29;20377;-68
2022/03/19 00:55:37;;;;;;;;;;;;;;;-1.18;47.85;101458.84;4907334;29;19943;-68
2022/03/19 00:58:03;;;;;;;;;;;;;;;-1.19;47.71;101459.81;4909251;29;19927;-66
2022/03/19 01:00:28;;;;;;;;;;;;;;;-1.23;47.53;101463.56;4908336;29;19959;-67
2022/03/19 01:02:54;;;;;;;;;;;;;;;-1.32;48.09;101464.19;4903758;29;19935;-68
2022/03/19 01:05:20;;;;;;;;;;;;;;;-1.35;48.11;101462.69;4897979;29;19938;-67
2022/03/19 01:07:47;;;;;;;;;;;;;;;-1.38;48.39;101468.09;4912624;29;20341;-67
2022/03/19 01:10:14;;;;;;;;;;;;;;;-1.46;48.34;101471.22;4917806;29;19927;-67
2022/03/19 01:12:41;;;;;;;;;;;;;;;-1.50;48.67;101471.53;4916777;29;20388;-67
2022/03/19 01:15:09;;;;;;;;;;;;;;;-1.54;48.54;101467.50;4916323;29;19962;-67
2022/03/19 01:17:35;;;;;;;;;;;;;;;-1.57;48.61;101472.94;4900606;29;19927;-67
2022/03/19 01:20:02;;;;;;;;;;;;;;;-1.62;48.72;101474.09;4916675;29;19938;-68
2022/03/19 01:22:28;;;;;;;;;;;;;;;-1.61;48.81;101469.72;4917867;29;20083;-69
2022/03/19 01:24:54;;;;;;;;;;;;;;;-1.61;48.50;101478.34;4917903;29;20056;-64
2022/03/19 01:27:20;;;;;;;;;;;;;;;-1.67;48.61;101472.75;4910081;29;20030;-65
2022/03/19 01:29:45;;;;;;;;;;;;;;;-1.68;49.03;101476.25;4897761;29;19999;-66
2022/03/19 01:32:11;;;;;;;;;;;;;;;-1.74;49.08;101482.72;4899797;29;19975;-65
2022/03/19 01:34:36;;;;;;;;;;;;;;;-1.77;48.91;101484.72;4897306;29;19953;-63
2022/03/19 01:37:02;;;;;;;;;;;;;;;-1.80;49.39;101484.91;4898563;29;19934;-65
2022/03/19 01:39:28;;;;;;;;;;;;;;;-1.83;48.96;101481.59;4898497;29;19936;-64
2022/03/19 01:41:54;;;;;;;;;;;;;;;-1.84;49.13;101481.72;4898967;29;20371;-65
2022/03/19 01:44:20;;;;;;;;;;;;;;;-1.85;49.65;101490.44;4917010;29;19931;-66
2022/03/19 01:47:07;;;;;;;;;;;;;;;-1.91;49.47;101485.66;4917385;29;19927;-64
2022/03/19 01:49:33;;;;;;;;;;;;;;;-1.97;49.71;101499.91;4900909;29;19931;-66
2022/03/19 01:51:58;;;;;;;;;;;;;;;-1.97;49.55;101492.13;4916953;29;20007;-66
2022/03/19 01:54:29;;;;;;;;;;;;;;;-1.98;49.61;101490.44;4917366;29;19931;-66
2022/03/19 01:56:54;;;;;;;;;;;;;;;-1.94;50.03;101493.66;4917549;29;20373;-66
2022/03/19 01:59:24;;;;;;;;;;;;;;;-1.94;49.28;101491.06;4884566;29;19979;-66
2022/03/19 02:01:52;;;;;;;;;;;;;;;-1.94;49.46;101488.47;4912449;29;20526;-66
2022/03/19 02:04:18;;;;;;;;;;;;;;;-1.96;49.63;101487.75;4898126;29;19935;-65
2022/03/19 02:06:44;;;;;;;;;;;;;;;-1.94;49.63;101493.66;4881024;29;19932;-66
2022/03/19 02:09:10;;;;;;;;;;;;;;;-1.94;49.58;101483.25;4897116;29;19931;-67
2022/03/19 02:11:35;;;;;;;;;;;;;;;-1.96;49.45;101488.56;4909948;29;20082;-65
2022/03/19 02:14:01;;;;;;;;;;;;;;;-1.96;49.22;101485.16;4916643;29;19978;-68
2022/03/19 02:16:27;;;;;;;;;;;;;;;-1.96;49.52;101482.56;4915133;29;19934;-64
2022/03/19 02:18:52;;;;;;;;;;;;;;;-1.97;49.32;101480.88;4916916;29;20575;-66
2022/03/19 02:21:18;;;;;;;;;;;;;;;-1.93;49.67;101482.34;4915926;29;19957;-67
2022/03/19 02:26:27;;;;;;;;;;;;;;;-1.94;49.42;101476.31;4901733;29;20405;-67
2022/03/19 02:28:53;;;;;;;;;;;;;;;-1.98;49.31;101474.84;4915533;29;19931;-68
2022/03/19 02:31:19;;;;;;;;;;;;;;;-1.98;49.13;101476.63;4902744;29;19930;-67
2022/03/19 02:33:44;;;;;;;;;;;;;;;-2.01;49.53;101479.44;4896207;29;19934;-65
2022/03/19 02:36:10;;;;;;;;;;;;;;;-2.04;49.61;101477.88;4896404;29;19967;-65
2022/03/19 02:38:35;;;;;;;;;;;;;;;-2.07;49.59;101480.66;4898273;29;20409;-65
2022/03/19 02:41:04;;;;;;;;;;;;;;;-2.10;49.53;101479.09;4913346;29;19931;-65
2022/03/19 02:43:30;;;;;;;;;;;;;;;-2.03;49.69;101482.13;4915094;29;20009;-64
2022/03/19 02:45:56;;;;;;;;;;;;;;;-2.02;49.66;101480.38;4914929;29;19931;-66
2022/03/19 02:48:22;;;;;;;;;;;;;;;-2.03;49.41;101482.13;4899515;29;19927;-66
2022/03/19 02:50:47;;;;;;;;;;;;;;;-2.02;49.60;101482.97;4914077;29;19946;-65
2022/03/19 02:53:13;;;;;;;;;;;;;;;-2.03;48.88;101482.13;4916101;29;20113;-67
2022/03/19 02:55:39;;;;;;;;;;;;;;;-2.05;49.16;101476.22;4915963;29;20392;-67
2022/03/19 02:58:05;;;;;;;;;;;;;;;-2.10;49.19;101486.09;4916391;29;19927;-66
2022/03/19 03:00:31;;;;;;;;;;;;;;;-2.10;49.75;101486.91;4916237;29;19931;-67
2022/03/19 03:02:57;;;;;;;;;;;;;;;-2.13;49.51;101484.50;4916319;29;20353;-67
2022/03/19 03:05:22;;;;;;;;;;;;;;;-2.24;49.99;101486.19;4914789;29;19982;-68
2022/03/19 03:07:48;;;;;;;;;;;;;;;-2.31;50.35;101480.56;4916315;29;19932;-65
2022/03/19 03:10:14;;;;;;;;;;;;;;;-2.31;49.97;101483.16;4915357;29;20329;-67
2022/03/19 03:12:40;;;;;;;;;;;;;;;-2.33;50.71;101491.03;4914498;29;19927;-67
2022/03/19 03:15:07;;;;;;;;;;;;;;;-2.33;50.00;101490.22;4915903;29;19977;-66
2022/03/19 03:17:33;;;;;;;;;;;;;;;-2.35;50.28;101485.13;4914529;29;19966;-67
2022/03/19 03:19:59;;;;;;;;;;;;;;;-2.39;49.74;101491.44;4883464;29;19938;-67
2022/03/19 03:22:24;;;;;;;;;;;;;;;-2.41;50.20;101493.34;4915752;29;20025;-66
2022/03/19 03:24:50;;;;;;;;;;;;;;;-2.43;50.71;101499.56;4915728;29;19931;-66
2022/03/19 03:27:15;;;;;;;;;;;;;;;-2.47;50.57;101496.34;4915872;29;19923;-66
2022/03/19 03:29:41;;;;;;;;;;;;;;;-2.49;50.53;101497.38;4902790;29;20095;-66
2022/03/19 03:32:07;;;;;;;;;;;;;;;-2.54;50.82;101498.50;4897049;29;19930;-67
2022/03/19 03:34:32;;;;;;;;;;;;;;;-2.51;51.08;101502.66;4895314;29;20507;-66
2022/03/19 03:36:58;;;;;;;;;;;;;;;-2.51;50.39;101510.44;4895641;29;20018;-66
2022/03/19 03:39:23;;;;;;;;;;;;;;;-2.47;50.24;101503.28;4879994;29;19953;-67
2022/03/19 03:41:49;;;;;;;;;;;;;;;-2.44;50.33;101505.69;4896872;29;19979;-66
2022/03/19 03:44:14;;;;;;;;;;;;;;;-2.42;50.68;101507.25;4895839;29;19931;-66
2022/03/19 03:46:40;;;;;;;;;;;;;;;-2.39;50.92;101504.44;4896587;29;19927;-66
2022/03/19 03:49:05;;;;;;;;;;;;;;;-2.29;50.63;101508.09;4891464;29;19937;-66
2022/03/19 03:51:31;;;;;;;;;;;;;;;-2.22;49.74;101511.13;4915402;29;19927;-67
2022/03/19 03:53:56;;;;;;;;;;;;;;;-2.14;49.31;101515.81;4915337;29;19931;-67
2022/03/19 03:56:22;;;;;;;;;;;;;;;-2.02;49.14;101512.38;4914087;29;19927;-65
2022/03/19 03:58:47;;;;;;;;;;;;;;;-1.90;49.18;101515.91;4914523;29;20377;-66
2022/03/19 04:01:13;;;;;;;;;;;;;;;-1.84;48.56;101510.31;4898779;29;19935;-67
2022/03/19 04:03:39;;;;;;;;;;;;;;;-1.76;48.25;101508.00;4915846;29;19974;-65
2022/03/19 04:06:04;;;;;;;;;;;;;;;-1.66;48.00;101510.81;4913925;29;19931;-65
2022/03/19 04:08:30;;;;;;;;;;;;;;;-1.49;47.57;101507.03;4913439;29;20033;-65
2022/03/19 04:10:55;;;;;;;;;;;;;;;-1.38;47.30;101504.53;4915557;29;19931;-65
2022/03/19 04:13:21;;;;;;;;;;;;;;;-1.28;47.03;101515.09;4915229;29;19985;-65
2022/03/19 04:15:46;;;;;;;;;;;;;;;-1.22;46.78;101509.47;4915064;29;19931;-64
2022/03/19 04:18:15;;;;;;;;;;;;;;;-1.15;46.48;101510.69;4896805;29;19927;-65
2022/03/19 04:20:40;;;;;;;;;;;;;;;-1.09;46.35;101509.41;4895096;29;19932;-65
2022/03/19 04:23:06;;;;;;;;;;;;;;;-1.02;46.05;101500.25;4895215;29;20462;-64
2022/03/19 04:25:31;;;;;;;;;;;;;;;-0.92;46.13;101516.84;4896517;29;19927;-64
2022/03/19 04:27:57;;;;;;;;;;;;;;;-0.82;45.76;101510.03;4897355;29;19927;-64
2022/03/19 04:30:24;;;;;;;;;;;;;;;-0.81;45.42;101509.09;4896240;29;19938;-64
2022/03/19 04:32:50;;;;;;;;;;;;;;;-0.87;45.64;101513.91;4896580;29;20034;-65
2022/03/19 04:38:01;;;;;;;;;;;;;;;-0.88;45.52;101520.06;4895446;29;19927;-64
2022/03/19 04:40:27;;;;;;;;;;;;;;;-0.83;45.28;101521.38;4896215;29;19995;-64
2022/03/19 04:42:53;;;;;;;;;;;;;;;-0.87;45.46;101519.13;4897264;29;19927;-66
2022/03/19 04:45:19;;;;;;;;;;;;;;;-0.93;45.49;101521.22;4902003;29;19939;-66
2022/03/19 04:47:44;;;;;;;;;;;;;;;-0.87;45.30;101524.34;4917155;29;19934;-67
2022/03/19 04:50:10;;;;;;;;;;;;;;;-0.93;45.78;101523.81;4917236;29;19935;-67
2022/03/19 04:52:36;;;;;;;;;;;;;;;-0.81;45.72;101526.50;4885907;29;20078;-65
2022/03/19 04:55:02;;;;;;;;;;;;;;;-0.77;45.70;101531.34;4916901;29;20022;-63
2022/03/19 04:57:29;;;;;;;;;;;;;;;-0.73;45.60;101532.81;4917131;29;20042;-64
2022/03/19 04:59:55;;;;;;;;;;;;;;;-0.63;45.75;101538.16;4916987;29;20413;-63
2022/03/19 05:02:24;;;;;;;;;;;;;;;-0.58;45.67;101541.28;4918541;29;19927;-63
2022/03/19 05:04:52;;;;;;;;;;;;;;;-0.53;45.80;101543.53;4912497;29;20345;-65
2022/03/19 05:07:21;;;;;;;;;;;;;;;-0.47;45.54;101541.34;4899376;29;19927;-65
2022/03/19 05:12:31;;;;;;;;;;;;;;;-0.33;45.24;101553.31;4899178;29;20234;-64
2022/03/19 05:14:57;;;;;;;;;;;;;;;-0.34;45.26;101548.25;4899237;29;19939;-64
2022/03/19 05:17:23;;;;;;;;;;;;;;;-0.25;45.71;101555.38;4882446;29;19927;-65
2022/03/19 05:19:48;;;;;;;;;;;;;;;-0.19;45.26;101554.09;4897718;29;20461;-65
2022/03/19 05:22:13;;;;;;;;;;;;;;;-0.07;44.59;101556.59;4899228;29;19930;-65
2022/03/19 05:24:39;;;;;;;;;;;;;;;0.05;43.88;101567.88;4899474;29;19939;-66
2022/03/19 05:27:04;;;;;;;;;;;;;;;-0.04;44.02;101563.38;4881959;29;19959;-65
2022/03/19 05:29:31;;;;;;;;;;;;;;;-0.03;43.92;101565.00;4898752;29;20038;-67
2022/03/19 05:31:57;;;;;;;;;;;;;;;-0.02;44.13;101564.91;4898807;29;19927;-65
2022/03/19 05:34:32;;;;;;;;;;;;;;;-0.06;43.96;101573.06;4882615;29;20313;-65
2022/03/19 05:36:58;;;;;;;;;;;;;;;0.00;43.79;101564.81;4897506;29;20438;-65
2022/03/19 05:39:24;;;;;;;;;;;;;;;0.03;43.74;101574.16;4898840;29;19981;-67
2022/03/19 05:41:49;;;;;;;;;;;;;;;0.08;43.75;101572.03;4882505;29;20356;-62
2022/03/19 05:44:15;;;;;;;;;;;;;;;0.10;43.67;101568.38;4911253;29;19938;-63
2022/03/19 05:46:40;;;;;;;;;;;;;;;0.14;43.04;101563.75;4917463;29;19934;-67
2022/03/19 05:49:06;;;;;;;;;;;;;;;0.24;43.59;101569.94;4917648;29;20393;-67
2022/03/19 05:51:31;;;;;;;;;;;;;;;0.42;43.33;101560.69;4916972;29;19927;-68
2022/03/19 05:53:57;;;;;;;;;;;;;;;0.62;42.83;101558.34;4917121;29;20045;-68
2022/03/19 05:56:24;;;;;;;;;;;;;;;0.78;42.81;101571.84;4915736;29;19955;-67
2022/03/19 05:58:50;;;;;;;;;;;;;;;0.90;41.87;101564.81;4907654;29;20385;-66
2022/03/19 06:01:15;;;;;;;;;;;;;;;1.04;41.85;101561.97;4917102;29;19931;-62
2022/03/19 06:03:41;;;;;;;;;;;;;;;1.09;42.08;101564.22;4914041;29;19927;-62
2022/03/19 06:06:06;;;;;;;;;;;;;;;1.22;41.72;101571.88;4916039;29;20025;-64
2022/03/19 06:08:32;;;;;;;;;;;;;;;1.27;41.68;101570.56;4917403;29;19927;-63
2022/03/19 06:10:58;;;;;;;;;;;;;;;1.33;41.26;101572.69;4915947;29;19935;-63
2022/03/19 06:13:24;;;;;;;;;;;;;;;1.35;41.51;101572.56;4915743;29;19931;-64
2022/03/19 06:15:49;;;;;;;;;;;;;;;1.43;40.80;101571.94;4884158;29;19931;-62
2022/03/19 06:18:15;;;;;;;;;;;;;;;1.57;40.77;101576.88;4917098;29;19934;-63
2022/03/19 06:20:40;;;;;;;;;;;;;;;1.75;40.62;101571.94;4916492;29;19937;-63
2022/03/19 06:23:06;;;;;;;;;;;;;;;1.83;40.49;101582.59;4914969;29;19974;-63
2022/03/19 06:25:31;;;;;;;;;;;;;;;1.92;40.13;101581.84;4915140;29;19983;-60
2022/03/19 06:27:57;;;;;;;;;;;;;;;2.04;39.47;101575.56;4916814;29;19927;-62
2022/03/19 06:30:24;;;;;;;;;;;;;;;2.18;38.78;101577.03;4916547;29;20350;-66
2022/03/19 06:32:49;;;;;;;;;;;;;;;2.24;39.18;101580.94;4913534;29;19933;-63
2022/03/19 06:37:19;;;;;;;;;;;;;;;2.35;38.52;101580.84;4916508;29;19932;-62
2022/03/19 06:38:01;;;;;;;;;;;;;;;2.44;38.51;101571.38;4916575;29;19926;-64
2022/03/19 06:40:26;;;;;;;;;;;;;;;2.45;38.07;101576.50;4914137;29;19931;-63
2022/03/19 06:42:52;;;;;;;;;;;;;;;2.52;38.41;101571.56;4907191;29;19927;-64
2022/03/19 06:45:17;;;;;;;;;;;;;;;2.62;38.40;101576.84;4902718;29;20482;-64
2022/03/19 06:47:43;;;;;;;;;;;;;;;2.68;37.89;101581.56;4915082;29;19927;-62
2022/03/19 06:50:08;;;;;;;;;;;;;;;2.76;37.82;101586.94;4906466;29;20029;-63
2022/03/19 06:52:34;;;;;;;;;;;;;;;2.86;37.63;101587.81;4889497;29;20301;-64
2022/03/19 06:54:59;;;;;;;;;;;;;;;2.99;37.45;101592.81;4907029;29;19946;-64
2022/03/19 06:57:25;;;;;;;;;;;;;;;3.03;37.54;101593.38;4903437;29;19927;-64
2022/03/19 06:59:50;;;;;;;;;;;;;;;3.11;37.01;101593.53;4907679;29;19939;-62
2022/03/19 07:02:16;;;;;;;;;;;;;;;3.23;36.77;101586.38;4909330;29;20394;-65
2022/03/19 07:04:41;;;;;;;;;;;;;;;3.26;37.11;101591.34;4916249;29;19966;-64
2022/03/19 07:07:07;;;;;;;;;;;;;;;3.24;37.29;101583.63;4916046;29;19923;-66
2022/03/19 07:09:34;;;;;;;;;;;;;;;3.32;36.99;101581.13;4915056;29;19975;-64
2022/03/19 07:11:59;;;;;;;;;;;;;;;3.29;36.92;101584.03;4915968;29;20023;-66
2022/03/19 07:14:25;;;;;;;;;;;;;;;3.24;37.02;101585.44;4898663;29;19939;-64
2022/03/19 07:16:51;;;;;;;;;;;;;;;3.42;36.31;101595.09;4897146;29;19934;-62
2022/03/19 07:19:16;;;;;;;;;;;;;;;3.47;36.65;101588.59;4885493;29;19931;-63
2022/03/19 07:21:42;;;;;;;;;;;;;;;3.42;36.91;101595.09;4915588;29;20401;-62
2022/03/19 07:24:07;;;;;;;;;;;;;;;3.42;36.79;101602.16;4914744;29;20296;-62
2022/03/19 07:26:33;;;;;;;;;;;;;;;3.52;36.60;101597.72;4915219;29;20041;-64
2022/03/19 07:28:59;;;;;;;;;;;;;;;3.62;36.59;101597.75;4915696;29;19931;-67
2022/03/19 07:31:25;;;;;;;;;;;;;;;3.63;36.35;101607.28;4913211;29;19927;-72
2022/03/19 07:33:51;;;;;;;;;;;;;;;3.65;36.24;101610.59;4897641;29;20022;-62
2022/03/19 07:36:19;;;;;;;;;;;;;;;3.71;36.01;101601.34;4915340;29;19987;-66
2022/03/19 07:38:45;;;;;;;;;;;;;;;3.75;36.60;101600.91;4898930;29;19931;-61
2022/03/19 07:43:54;;;;;;;;;;;;;;;3.70;36.42;101604.91;4915887;29;19931;-68
2022/03/19 07:46:22;;;;;;;;;;;;;;;3.78;36.75;101612.94;4882910;29;19927;-71
2022/03/19 07:48:48;;;;;;;;;;;;;;;3.78;36.23;101602.44;4912906;29;19958;-63
2022/03/19 07:51:13;;;;;;;;;;;;;;;3.86;36.52;101607.81;4903392;29;19989;-63
2022/03/19 07:53:39;;;;;;;;;;;;;;;3.89;36.18;101610.16;4899240;29;19928;-63
2022/03/19 07:56:06;;;;;;;;;;;;;;;4.02;36.09;101608.06;4896508;29;20017;-64
2022/03/19 07:58:31;;;;;;;;;;;;;;;4.07;35.56;101608.47;4895227;29;20030;-64
2022/03/19 08:00:57;;;;;;;;;;;;;;;4.07;36.02;101597.16;4895313;29;20022;-62
2022/03/19 08:03:22;;;;;;;;;;;;;;;4.14;35.36;101600.88;4895425;29;19983;-63
2022/03/19 08:05:48;;;;;;;;;;;;;;;4.22;35.80;101602.78;4896372;29;20420;-67
2022/03/19 08:08:14;;;;;;;;;;;;;;;4.33;35.67;101598.22;4896783;29;19928;-71
2022/03/19 08:10:40;;;;;;;;;;;;;;;4.19;35.28;101597.84;4896182;29;19938;-70
2022/03/19 08:13:06;;;;;;;;;;;;;;;4.25;35.69;101592.84;4894951;29;20022;-66
2022/03/19 08:15:31;;;;;;;;;;;;;;;4.33;35.55;101592.13;4896488;29;19938;-66
2022/03/19 08:17:58;;;;;;;;;;;;;;;4.51;35.29;101592.22;4895171;29;19928;-66
2022/03/19 08:20:23;;;;;;;;;;;;;;;4.62;34.89;101588.56;4897969;29;19931;-66
2022/03/19 08:22:49;;;;;;;;;;;;;;;4.64;34.92;101587.44;4900353;29;19934;-67
2022/03/19 08:25:15;;;;;;;;;;;;;;;4.70;34.48;101588.69;4900131;29;19970;-67
2022/03/19 08:27:40;;;;;;;;;;;;;;;4.74;34.80;101585.63;4900109;29;19927;-67
2022/03/19 08:30:06;;;;;;;;;;;;;;;4.77;34.30;101582.72;4899747;29;20037;-66
2022/03/19 08:32:31;;;;;;;;;;;;;;;4.77;34.27;101584.50;4898754;29;19978;-66
2022/03/19 08:34:57;;;;;;;;;;;;;;;4.86;34.39;101593.31;4899887;29;19931;-67
2022/03/19 08:37:23;;;;;;;;;;;;;;;4.91;34.48;101594.53;4899980;29;20068;-66
2022/03/19 08:42:33;;;;;;;;;;;;;;;5.05;34.23;101593.19;4899857;29;19930;-67
2022/03/19 08:44:59;;;;;;;;;;;;;;;5.06;34.44;101591.41;4899525;29;20408;-67
2022/03/19 08:47:25;;;;;;;;;;;;;;;5.06;34.31;101594.88;4899622;29;19927;-65
2022/03/19 08:49:50;;;;;;;;;;;;;;;5.10;34.19;101592.78;4898999;29;19939;-66
2022/03/19 08:52:15;;;;;;;;;;;;;;;5.12;34.24;101596.09;4898067;29;19939;-68
2022/03/19 08:54:41;;;;;;;;;;;;;;;5.22;33.51;101592.41;4899471;29;19931;-66
2022/03/19 08:57:07;;;;;;;;;;;;;;;5.22;33.78;101594.22;4899826;29;20408;-68
2022/03/19 08:59:32;;;;;;;;;;;;;;;5.24;34.62;101601.00;4899726;29;20014;-67
2022/03/19 09:01:59;;;;;;;;;;;;;;;5.25;34.01;101596.56;4899526;29;19939;-67
2022/03/19 09:04:24;;;;;;;;;;;;;;;5.29;34.00;101608.41;4899233;29;19939;-67
2022/03/19 09:06:50;;;;;;;;;;;;;;;5.32;33.21;101605.50;4899310;29;19927;-65
2022/03/19 09:09:17;;;;;;;;;;;;;;;5.38;33.93;101601.44;4899374;29;19955;-66
2022/03/19 09:11:43;;;;;;;;;;;;;;;5.44;33.94;101603.47;4899242;29;19932;-66
2022/03/19 09:14:09;;;;;;;;;;;;;;;5.53;33.87;101610.50;4899009;29;19935;-67
2022/03/19 09:16:34;;;;;;;;;;;;;;;5.62;33.21;101601.69;4899123;29;19927;-67
2022/03/19 09:19:00;;;;;;;;;;;;;;;5.66;33.90;101613.56;4882026;29;19938;-66
2022/03/19 09:21:29;;;;;;;;;;;;;;;5.72;32.99;101616.56;4898868;29;19931;-67
2022/03/19 09:23:55;;;;;;;;;;;;;;;5.80;32.84;101609.56;4898888;29;19954;-66
2022/03/19 09:26:20;;;;;;;;;;;;;;;5.79;32.75;101605.28;4898865;29;19927;-66
2022/03/19 09:28:46;;;;;;;;;;;;;;;5.84;33.23;101613.56;4881800;29;19987;-67
2022/03/19 09:31:12;;;;;;;;;;;;;;;5.87;32.38;101601.91;4898468;29;20037;-66
2022/03/19 09:33:39;;;;;;;;;;;;;;;5.94;33.36;101616.13;4899087;29;20346;-66
2022/03/19 09:36:05;;;;;;;;;;;;;;;6.00;32.91;101612.06;4898854;29;19932;-68
2022/03/19 09:38:31;;;;;;;;;;;;;;;5.99;32.06;101610.41;4897550;29;19949;-66
2022/03/19 09:40:56;;;;;;;;;;;;;;;6.01;32.73;101617.19;4898545;29;19963;-66
2022/03/19 09:43:23;;;;;;;;;;;;;;;6.05;32.33;101610.63;4899007;29;19928;-66
2022/03/19 09:45:48;;;;;;;;;;;;;;;6.10;31.73;101615.44;4898492;29;20075;-66
2022/03/19 09:48:14;;;;;;;;;;;;;;;6.18;31.96;101610.22;4897370;29;20022;-65
2022/03/19 09:50:39;;;;;;;;;;;;;;;6.20;32.20;101617.97;4898355;29;19931;-66
2022/03/19 09:53:05;;;;;;;;;;;;;;;6.20;32.30;101615.34;4897114;29;19927;-66
2022/03/19 09:55:32;;;;;;;;;;;;;;;6.27;31.81;101624.28;4898561;29;19931;-66
2022/03/19 09:57:57;;;;;;;;;;;;;;;6.32;31.59;101620.22;4881754;29;20461;-65
2022/03/19 10:00:24;;;;;;;;;;;;;;;6.37;32.22;101615.28;4896923;29;19931;-65
2022/03/19 10:02:49;;;;;;;;;;;;;;;6.43;31.57;101627.00;4898464;29;19928;-66
2022/03/19 10:10:43;;;;;;;;;;;;;;;6.50;32.33;101619.31;4897258;29;20002;-67
2022/03/19 10:13:11;;;;;;;;;;;;;;;6.52;31.95;101625.25;4898243;29;20023;-65
2022/03/19 10:15:40;;;;;;;;;;;;;;;6.51;31.95;101619.16;4897838;29;19931;-65
2022/03/19 10:18:07;;;;;;;;;;;;;;;6.52;30.99;101619.97;4896945;29;19934;-65
2022/03/19 10:20:34;;;;;;;;;;;;;;;6.56;31.74;101619.53;4897871;29;19927;-67
2022/03/19 10:23:00;;;;;;;;;;;;;;;6.55;30.83;101620.50;4898043;29;19927;-65
2022/03/19 10:25:25;;;;;;;;;;;;;;;6.63;31.94;101621.53;4896434;29;19983;-65
2022/03/19 10:27:51;;;;;;;;;;;;;;;6.69;31.67;101626.19;4897916;29;19934;-65
2022/03/19 10:30:19;;;;;;;;;;;;;;;6.72;31.08;101616.13;4897944;29;19938;-66
2022/03/19 10:32:49;;;;;;;;;;;;;;;6.80;30.75;101616.19;4897416;29;20028;-67
2022/03/19 10:35:24;;;;;;;;;;;;;;;6.84;30.88;101611.41;4896591;29;19932;-66
2022/03/19 10:37:50;;;;;;;;;;;;;;;6.87;31.12;101616.38;4896326;29;19999;-67
2022/03/19 10:40:15;;;;;;;;;;;;;;;6.85;31.29;101612.22;4897402;29;20405;-65
2022/03/19 10:42:42;;;;;;;;;;;;;;;6.95;30.71;101619.03;4897031;29;19978;-66
2022/03/19 10:45:28;;;;;;;;;;;;;;;6.99;30.57;101620.38;4897635;29;20362;-66
2022/03/19 10:47:53;;;;;;;;;;;;;;;7.03;30.77;101613.81;4897814;29;19983;-66
2022/03/19 10:50:23;;;;;;;;;;;;;;;7.05;30.49;101621.53;4895996;29;19935;-65
2022/03/19 10:52:49;;;;;;;;;;;;;;;7.05;30.95;101611.81;4897628;29;19932;-66
2022/03/19 10:55:14;;;;;;;;;;;;;;;7.09;30.56;101606.22;4897247;29;19939;-66
2022/03/19 10:57:41;;;;;;;;;;;;;;;7.09;30.80;101604.44;4897161;29;19927;-66
2022/03/19 11:00:07;;;;;;;;;;;;;;;7.10;31.22;101611.34;4897373;29;19934;-65
2022/03/19 11:02:33;;;;;;;;;;;;;;;7.11;31.10;101607.72;4880427;29;19982;-67
2022/03/19 11:04:59;;;;;;;;;;;;;;;7.11;31.06;101607.72;4900741;29;20463;-65
2022/03/19 11:07:25;;;;;;;;;;;;;;;7.12;30.71;101598.84;4914696;29;19975;-67
2022/03/19 11:09:51;;;;;;;;;;;;;;;7.04;30.72;101590.91;4914751;29;20027;-65
2022/03/19 11:12:17;;;;;;;;;;;;;;;7.02;30.54;101588.41;4916175;29;20296;-65
2022/03/19 11:14:42;;;;;;;;;;;;;;;7.00;30.64;101590.41;4915761;29;19931;-66
2022/03/19 11:17:36;;;;;;;;;;;;;;;7.05;31.00;101596.00;4916056;29;19938;-66
2022/03/19 11:20:02;;;;;;;;;;;;;;;7.13;29.81;101589.09;4914559;29;19931;-65
2022/03/19 11:22:29;;;;;;;;;;;;;;;7.11;30.33;101604.25;4915937;29;20324;-66
2022/03/19 11:25:19;;;;;;;;;;;;;;;7.12;30.38;101598.84;4898734;29;20429;-65
2022/03/19 11:27:46;;;;;;;;;;;;;;;7.15;29.39;101595.88;4907277;29;19927;-66
2022/03/19 11:30:16;;;;;;;;;;;;;;;7.18;29.40;101587.66;4915441;29;20401;-65
2022/03/19 11:33:01;;;;;;;;;;;;;;;7.17;29.19;101595.72;4914275;29;20030;-64
2022/03/19 11:35:27;;;;;;;;;;;;;;;7.14;29.23;101596.03;4915687;29;20321;-65
2022/03/19 11:38:01;;;;;;;;;;;;;;;7.14;29.69;101617.13;4915835;29;19927;-67
2022/03/19 11:40:29;;;;;;;;;;;;;;;7.13;29.01;101608.41;4915773;29;19931;-66
2022/03/19 11:42:55;;;;;;;;;;;;;;;7.15;29.02;101598.53;4914451;29;20074;-66
2022/03/19 11:45:20;;;;;;;;;;;;;;;7.15;28.64;101595.88;4915826;29;20033;-66
2022/03/19 11:47:46;;;;;;;;;;;;;;;7.17;28.95;101603.63;4914253;29;19931;-66
2022/03/19 11:50:21;;;;;;;;;;;;;;;7.17;28.93;101600.97;4915596;29;19931;-66
2022/03/19 11:52:46;;;;;;;;;;;;;;;7.17;29.06;101607.06;4915559;29;20014;-65
2022/03/19 11:55:13;;;;;;;;;;;;;;;7.12;29.91;101598.84;4918482;29;20512;-62
2022/03/19 11:57:55;;;;;;;;;;;;;;;7.15;29.51;101593.25;4919486;29;19931;-64
2022/03/19 12:00:27;;;;;;;;;;;;;;;7.15;29.60;101601.16;4918088;29;19931;-64
2022/03/19 12:02:59;;;;;;;;;;;;;;;7.08;28.86;101596.66;4919598;29;20292;-61
2022/03/19 12:05:26;;;;;;;;;;;;;;;7.09;28.90;101587.75;4886687;29;19931;-62
2022/03/19 12:07:53;;;;;;;;;;;;;;;7.17;29.47;101595.72;4914715;29;19934;-63
2022/03/19 12:10:27;;;;;;;;;;;;;;;7.16;29.40;101592.25;4913928;29;20025;-65
2022/03/19 12:12:53;;;;;;;;;;;;;;;7.18;29.40;101595.56;4904105;29;20308;-62
2022/03/19 12:15:31;;;;;;;;;;;;;;;7.13;29.07;101603.13;4916152;29;19935;-64
2022/03/19 12:18:15;;;;;;;;;;;;;;;7.16;29.14;101591.44;4908528;29;19934;-65
2022/03/19 12:20:44;;;;;;;;;;;;;;;7.17;29.19;101590.44;4908203;29;19935;-68
2022/03/19 12:23:13;;;;;;;;;;;;;;;7.21;29.02;101573.31;4904148;29;19931;-64
2022/03/19 12:25:42;;;;;;;;;;;;;;;7.20;29.22;101576.91;4911986;29;19936;-65
2022/03/19 12:28:08;;;;;;;;;;;;;;;7.18;30.15;101571.00;4906389;29;19927;-64
2022/03/19 12:30:34;;;;;;;;;;;;;;;7.17;30.02;101582.50;4908961;29;19939;-66
2022/03/19 12:33:00;;;;;;;;;;;;;;;7.14;29.99;101578.38;4907257;29;19974;-64
2022/03/19 12:35:26;;;;;;;;;;;;;;;7.18;29.97;101573.63;4918211;29;19974;-69
2022/03/19 12:37:56;;;;;;;;;;;;;;;7.14;30.01;101574.94;4900570;29;19973;-68
2022/03/19 12:40:26;;;;;;;;;;;;;;;7.14;30.03;101572.28;4885697;29;19931;-66
2022/03/19 12:43:01;;;;;;;;;;;;;;;7.19;29.58;101570.00;4918153;29;20423;-69
2022/03/19 12:45:36;;;;;;;;;;;;;;;7.17;29.87;101570.16;4914894;29;20018;-69
2022/03/19 12:48:07;;;;;;;;;;;;;;;7.14;30.04;101565.19;4909265;29;19927;-69
2022/03/19 12:50:32;;;;;;;;;;;;;;;7.19;29.70;101564.72;4907596;29;20026;-71
2022/03/19 12:52:58;;;;;;;;;;;;;;;7.24;29.46;101565.91;4917615;29;20022;-70
2022/03/19 12:55:23;;;;;;;;;;;;;;;7.25;29.39;101562.25;4917981;29;19942;-68
2022/03/19 12:57:58;;;;;;;;;;;;;;;7.26;29.93;101563.94;4916366;29;19927;-69
2022/03/19 13:00:24;;;;;;;;;;;;;;;7.24;29.29;101562.44;4903852;29;20392;-69